sensor_id;sensor_type;location;lat;lon;timestamp;P1;durP1;ratioP1;P2;durP2;ratioP2
70201;SDS011;57724;52.164;5.408;2022-08-19T00:01:32;12.30;;;6.38;;
70201;SDS011;57724;52.164;5.408;2022-08-19T00:04:04;13.40;;;7.22;;
70201;SDS011;57724;52.164;5.408;2022-08-19T00:06:33;13.60;;;7.10;;
70201;SDS011;57724;52.164;5.408;2022-08-19T00:09:02;13.88;;;7.85;;
70201;SDS011;57724;52.164;5.408;2022-08-19T00:11:31;14.80;;;7.75;;
70201;SDS011;57724;52.164;5.408;2022-08-19T00:13:59;13.45;;;7.50;;
70201;SDS011;57724;52.164;5.408;2022-08-19T00:16:26;13.02;;;7.25;;
70201;SDS011;57724;52.164;5.408;2022-08-19T00:18:54;12.23;;;7.13;;
70201;SDS011;57724;52.164;5.408;2022-08-19T00:21:22;15.70;;;7.15;;
70201;SDS011;57724;52.164;5.408;2022-08-19T00:28:45;15.38;;;8.27;;
70201;SDS011;57724;52.164;5.408;2022-08-19T00:31:13;15.75;;;7.88;;
70201;SDS011;57724;52.164;5.408;2022-08-19T00:33:41;14.40;;;8.23;;
70201;SDS011;57724;52.164;5.408;2022-08-19T00:36:09;14.23;;;8.02;;
70201;SDS011;57724;52.164;5.408;2022-08-19T00:38:37;15.65;;;8.60;;
70201;SDS011;57724;52.164;5.408;2022-08-19T00:41:07;16.33;;;9.65;;
70201;SDS011;57724;52.164;5.408;2022-08-19T00:43:35;16.42;;;9.10;;
70201;SDS011;57724;52.164;5.408;2022-08-19T00:46:01;15.43;;;9.70;;
70201;SDS011;57724;52.164;5.408;2022-08-19T00:48:31;18.27;;;9.35;;
70201;SDS011;57724;52.164;5.408;2022-08-19T00:51:00;16.65;;;8.98;;
70201;SDS011;57724;52.164;5.408;2022-08-19T00:53:29;17.33;;;9.65;;
70201;SDS011;57724;52.164;5.408;2022-08-19T00:55:58;17.85;;;9.60;;
70201;SDS011;57724;52.164;5.408;2022-08-19T00:58:29;18.38;;;10.23;;
70201;SDS011;57724;52.164;5.408;2022-08-19T01:00:58;20.25;;;11.25;;
70201;SDS011;57724;52.164;5.408;2022-08-19T01:03:26;18.80;;;10.27;;
70201;SDS011;57724;52.164;5.408;2022-08-19T01:06:13;19.52;;;11.65;;
70201;SDS011;57724;52.164;5.408;2022-08-19T01:08:45;19.55;;;10.65;;
70201;SDS011;57724;52.164;5.408;2022-08-19T01:11:15;20.52;;;11.10;;
70201;SDS011;57724;52.164;5.408;2022-08-19T01:13:42;21.67;;;11.25;;
70201;SDS011;57724;52.164;5.408;2022-08-19T01:16:16;19.10;;;11.27;;
70201;SDS011;57724;52.164;5.408;2022-08-19T01:18:45;22.45;;;11.32;;
70201;SDS011;57724;52.164;5.408;2022-08-19T01:21:18;18.85;;;11.43;;
70201;SDS011;57724;52.164;5.408;2022-08-19T01:24:00;19.40;;;11.43;;
70201;SDS011;57724;52.164;5.408;2022-08-19T01:26:27;20.33;;;12.15;;
70201;SDS011;57724;52.164;5.408;2022-08-19T01:28:57;21.65;;;11.68;;
70201;SDS011;57724;52.164;5.408;2022-08-19T01:31:27;20.08;;;11.82;;
70201;SDS011;57724;52.164;5.408;2022-08-19T01:33:58;21.38;;;12.30;;
70201;SDS011;57724;52.164;5.408;2022-08-19T01:36:31;21.45;;;12.15;;
70201;SDS011;57724;52.164;5.408;2022-08-19T01:39:01;24.35;;;12.82;;
70201;SDS011;57724;52.164;5.408;2022-08-19T01:41:32;21.60;;;11.98;;
70201;SDS011;57724;52.164;5.408;2022-08-19T01:43:59;20.45;;;12.15;;
70201;SDS011;57724;52.164;5.408;2022-08-19T01:46:44;21.90;;;12.10;;
70201;SDS011;57724;52.164;5.408;2022-08-19T01:49:14;23.35;;;12.52;;
70201;SDS011;57724;52.164;5.408;2022-08-19T01:54:10;24.27;;;11.82;;
70201;SDS011;57724;52.164;5.408;2022-08-19T01:56:49;20.02;;;11.32;;
70201;SDS011;57724;52.164;5.408;2022-08-19T01:59:17;20.30;;;11.23;;
70201;SDS011;57724;52.164;5.408;2022-08-19T02:01:47;20.65;;;11.95;;
70201;SDS011;57724;52.164;5.408;2022-08-19T02:04:14;19.38;;;11.10;;
70201;SDS011;57724;52.164;5.408;2022-08-19T02:06:42;20.13;;;11.05;;
70201;SDS011;57724;52.164;5.408;2022-08-19T02:09:09;19.85;;;11.45;;
70201;SDS011;57724;52.164;5.408;2022-08-19T02:11:36;21.10;;;11.02;;
70201;SDS011;57724;52.164;5.408;2022-08-19T02:14:05;17.88;;;11.10;;
70201;SDS011;57724;52.164;5.408;2022-08-19T02:16:34;19.83;;;11.23;;
70201;SDS011;57724;52.164;5.408;2022-08-19T02:19:02;20.35;;;11.05;;
70201;SDS011;57724;52.164;5.408;2022-08-19T02:21:29;19.70;;;11.35;;
70201;SDS011;57724;52.164;5.408;2022-08-19T02:23:57;19.35;;;10.80;;
70201;SDS011;57724;52.164;5.408;2022-08-19T02:26:24;20.13;;;10.32;;
70201;SDS011;57724;52.164;5.408;2022-08-19T02:28:53;19.13;;;10.75;;
70201;SDS011;57724;52.164;5.408;2022-08-19T02:31:21;17.63;;;11.02;;
70201;SDS011;57724;52.164;5.408;2022-08-19T02:33:51;16.38;;;9.77;;
70201;SDS011;57724;52.164;5.408;2022-08-19T02:36:22;17.30;;;10.00;;
70201;SDS011;57724;52.164;5.408;2022-08-19T02:38:50;19.80;;;10.82;;
70201;SDS011;57724;52.164;5.408;2022-08-19T02:41:24;17.90;;;9.48;;
70201;SDS011;57724;52.164;5.408;2022-08-19T02:43:54;16.27;;;9.75;;
70201;SDS011;57724;52.164;5.408;2022-08-19T02:46:45;15.10;;;8.65;;
70201;SDS011;57724;52.164;5.408;2022-08-19T02:49:13;16.38;;;8.98;;
70201;SDS011;57724;52.164;5.408;2022-08-19T02:51:43;14.30;;;8.25;;
70201;SDS011;57724;52.164;5.408;2022-08-19T02:54:11;20.55;;;9.63;;
70201;SDS011;57724;52.164;5.408;2022-08-19T02:56:39;18.55;;;10.20;;
70201;SDS011;57724;52.164;5.408;2022-08-19T02:59:07;16.42;;;9.23;;
70201;SDS011;57724;52.164;5.408;2022-08-19T03:04:07;17.13;;;9.32;;
70201;SDS011;57724;52.164;5.408;2022-08-19T03:09:03;17.35;;;9.65;;
70201;SDS011;57724;52.164;5.408;2022-08-19T03:11:30;15.60;;;9.35;;
70201;SDS011;57724;52.164;5.408;2022-08-19T03:13:58;20.23;;;10.07;;
70201;SDS011;57724;52.164;5.408;2022-08-19T03:16:28;17.10;;;9.25;;
70201;SDS011;57724;52.164;5.408;2022-08-19T03:18:59;17.98;;;9.65;;
70201;SDS011;57724;52.164;5.408;2022-08-19T03:21:31;17.88;;;9.75;;
70201;SDS011;57724;52.164;5.408;2022-08-19T03:24:00;18.77;;;10.15;;
70201;SDS011;57724;52.164;5.408;2022-08-19T03:26:29;16.75;;;9.27;;
70201;SDS011;57724;52.164;5.408;2022-08-19T03:28:56;15.70;;;8.93;;
70201;SDS011;57724;52.164;5.408;2022-08-19T03:31:30;15.85;;;8.80;;
70201;SDS011;57724;52.164;5.408;2022-08-19T03:34:17;15.05;;;7.95;;
70201;SDS011;57724;52.164;5.408;2022-08-19T03:36:47;16.02;;;8.30;;
70201;SDS011;57724;52.164;5.408;2022-08-19T03:39:14;16.83;;;8.57;;
70201;SDS011;57724;52.164;5.408;2022-08-19T03:41:42;13.77;;;7.75;;
70201;SDS011;57724;52.164;5.408;2022-08-19T03:44:14;15.80;;;8.30;;
70201;SDS011;57724;52.164;5.408;2022-08-19T03:46:48;20.42;;;8.57;;
70201;SDS011;57724;52.164;5.408;2022-08-19T03:49:17;17.13;;;8.77;;
70201;SDS011;57724;52.164;5.408;2022-08-19T03:51:45;16.73;;;8.15;;
70201;SDS011;57724;52.164;5.408;2022-08-19T03:54:14;15.98;;;8.93;;
70201;SDS011;57724;52.164;5.408;2022-08-19T03:56:44;15.68;;;7.68;;
70201;SDS011;57724;52.164;5.408;2022-08-19T03:59:14;18.30;;;9.27;;
70201;SDS011;57724;52.164;5.408;2022-08-19T04:01:43;16.90;;;9.25;;
70201;SDS011;57724;52.164;5.408;2022-08-19T04:04:10;17.02;;;8.35;;
70201;SDS011;57724;52.164;5.408;2022-08-19T04:06:37;17.08;;;8.73;;
70201;SDS011;57724;52.164;5.408;2022-08-19T04:09:07;15.65;;;8.13;;
70201;SDS011;57724;52.164;5.408;2022-08-19T04:11:37;14.18;;;7.13;;
70201;SDS011;57724;52.164;5.408;2022-08-19T04:14:11;17.95;;;8.80;;
70201;SDS011;57724;52.164;5.408;2022-08-19T04:16:41;34.25;;;10.00;;
70201;SDS011;57724;52.164;5.408;2022-08-19T04:19:10;19.40;;;8.55;;
70201;SDS011;57724;52.164;5.408;2022-08-19T04:21:37;17.98;;;9.43;;
70201;SDS011;57724;52.164;5.408;2022-08-19T04:24:04;20.33;;;8.75;;
70201;SDS011;57724;52.164;5.408;2022-08-19T04:26:34;15.98;;;8.10;;
70201;SDS011;57724;52.164;5.408;2022-08-19T04:29:07;16.23;;;8.25;;
70201;SDS011;57724;52.164;5.408;2022-08-19T04:31:39;18.15;;;8.30;;
70201;SDS011;57724;52.164;5.408;2022-08-19T04:34:07;17.60;;;7.82;;
70201;SDS011;57724;52.164;5.408;2022-08-19T04:36:39;15.45;;;7.97;;
70201;SDS011;57724;52.164;5.408;2022-08-19T04:39:12;16.15;;;7.82;;
70201;SDS011;57724;52.164;5.408;2022-08-19T04:41:40;14.98;;;7.70;;
70201;SDS011;57724;52.164;5.408;2022-08-19T04:44:25;15.55;;;7.72;;
70201;SDS011;57724;52.164;5.408;2022-08-19T04:46:53;16.30;;;8.23;;
70201;SDS011;57724;52.164;5.408;2022-08-19T04:49:20;15.52;;;7.53;;
70201;SDS011;57724;52.164;5.408;2022-08-19T04:51:49;17.50;;;8.38;;
70201;SDS011;57724;52.164;5.408;2022-08-19T04:54:20;16.65;;;8.35;;
70201;SDS011;57724;52.164;5.408;2022-08-19T04:57:07;16.75;;;7.75;;
70201;SDS011;57724;52.164;5.408;2022-08-19T04:59:37;16.35;;;8.32;;
70201;SDS011;57724;52.164;5.408;2022-08-19T05:02:04;17.70;;;8.32;;
70201;SDS011;57724;52.164;5.408;2022-08-19T05:04:33;15.65;;;8.52;;
70201;SDS011;57724;52.164;5.408;2022-08-19T05:07:01;16.60;;;8.70;;
70201;SDS011;57724;52.164;5.408;2022-08-19T05:09:29;17.10;;;8.35;;
70201;SDS011;57724;52.164;5.408;2022-08-19T05:12:16;17.77;;;8.80;;
70201;SDS011;57724;52.164;5.408;2022-08-19T05:14:44;19.23;;;8.88;;
70201;SDS011;57724;52.164;5.408;2022-08-19T05:17:13;16.42;;;9.13;;
70201;SDS011;57724;52.164;5.408;2022-08-19T05:20:00;16.95;;;8.75;;
70201;SDS011;57724;52.164;5.408;2022-08-19T05:22:46;15.73;;;8.75;;
70201;SDS011;57724;52.164;5.408;2022-08-19T05:25:15;17.35;;;8.88;;
70201;SDS011;57724;52.164;5.408;2022-08-19T05:27:45;19.33;;;9.20;;
70201;SDS011;57724;52.164;5.408;2022-08-19T05:30:12;19.45;;;9.60;;
70201;SDS011;57724;52.164;5.408;2022-08-19T05:32:40;18.55;;;8.50;;
70201;SDS011;57724;52.164;5.408;2022-08-19T05:35:08;18.98;;;9.73;;
70201;SDS011;57724;52.164;5.408;2022-08-19T05:37:35;18.70;;;8.75;;
70201;SDS011;57724;52.164;5.408;2022-08-19T05:40:03;25.42;;;13.23;;
70201;SDS011;57724;52.164;5.408;2022-08-19T05:42:30;24.35;;;12.90;;
70201;SDS011;57724;52.164;5.408;2022-08-19T05:44:57;23.35;;;11.20;;
70201;SDS011;57724;52.164;5.408;2022-08-19T05:47:24;19.27;;;9.73;;
70201;SDS011;57724;52.164;5.408;2022-08-19T05:49:51;24.08;;;11.32;;
70201;SDS011;57724;52.164;5.408;2022-08-19T05:52:19;29.27;;;13.88;;
70201;SDS011;57724;52.164;5.408;2022-08-19T05:54:51;27.20;;;14.13;;
70201;SDS011;57724;52.164;5.408;2022-08-19T05:57:21;31.92;;;14.70;;
70201;SDS011;57724;52.164;5.408;2022-08-19T05:59:47;35.33;;;16.23;;
70201;SDS011;57724;52.164;5.408;2022-08-19T06:02:24;44.38;;;20.55;;
70201;SDS011;57724;52.164;5.408;2022-08-19T06:04:51;46.20;;;19.85;;
70201;SDS011;57724;52.164;5.408;2022-08-19T06:07:18;43.67;;;19.85;;
70201;SDS011;57724;52.164;5.408;2022-08-19T06:09:45;44.38;;;19.52;;
70201;SDS011;57724;52.164;5.408;2022-08-19T06:12:26;47.75;;;20.33;;
70201;SDS011;57724;52.164;5.408;2022-08-19T06:15:02;47.10;;;20.58;;
70201;SDS011;57724;52.164;5.408;2022-08-19T06:17:32;45.83;;;20.63;;
70201;SDS011;57724;52.164;5.408;2022-08-19T06:20:02;45.53;;;19.73;;
70201;SDS011;57724;52.164;5.408;2022-08-19T06:24:56;43.08;;;20.05;;
70201;SDS011;57724;52.164;5.408;2022-08-19T06:27:23;49.92;;;22.25;;
70201;SDS011;57724;52.164;5.408;2022-08-19T06:29:50;43.75;;;20.35;;
70201;SDS011;57724;52.164;5.408;2022-08-19T06:32:18;46.42;;;20.08;;
70201;SDS011;57724;52.164;5.408;2022-08-19T06:34:45;39.80;;;19.38;;
70201;SDS011;57724;52.164;5.408;2022-08-19T06:37:12;44.17;;;19.88;;
70201;SDS011;57724;52.164;5.408;2022-08-19T06:39:41;41.58;;;19.85;;
70201;SDS011;57724;52.164;5.408;2022-08-19T06:42:10;46.50;;;21.48;;
70201;SDS011;57724;52.164;5.408;2022-08-19T06:47:08;42.42;;;19.05;;
70201;SDS011;57724;52.164;5.408;2022-08-19T06:49:40;43.55;;;20.10;;
70201;SDS011;57724;52.164;5.408;2022-08-19T06:52:08;40.20;;;20.35;;
70201;SDS011;57724;52.164;5.408;2022-08-19T06:54:40;44.30;;;20.67;;
70201;SDS011;57724;52.164;5.408;2022-08-19T06:57:24;45.97;;;20.13;;
70201;SDS011;57724;52.164;5.408;2022-08-19T06:59:52;50.35;;;20.65;;
70201;SDS011;57724;52.164;5.408;2022-08-19T07:02:19;48.47;;;21.63;;
70201;SDS011;57724;52.164;5.408;2022-08-19T07:04:46;47.92;;;20.20;;
70201;SDS011;57724;52.164;5.408;2022-08-19T07:07:18;51.05;;;21.42;;
70201;SDS011;57724;52.164;5.408;2022-08-19T07:09:47;54.88;;;21.60;;
70201;SDS011;57724;52.164;5.408;2022-08-19T07:12:28;49.80;;;20.75;;
70201;SDS011;57724;52.164;5.408;2022-08-19T07:14:57;55.92;;;22.63;;
70201;SDS011;57724;52.164;5.408;2022-08-19T07:17:24;54.10;;;23.70;;
70201;SDS011;57724;52.164;5.408;2022-08-19T07:19:51;54.50;;;23.58;;
70201;SDS011;57724;52.164;5.408;2022-08-19T07:22:20;53.58;;;21.58;;
70201;SDS011;57724;52.164;5.408;2022-08-19T07:24:50;55.70;;;24.00;;
70201;SDS011;57724;52.164;5.408;2022-08-19T07:27:18;59.13;;;25.58;;
70201;SDS011;57724;52.164;5.408;2022-08-19T07:29:50;59.85;;;24.45;;
70201;SDS011;57724;52.164;5.408;2022-08-19T07:32:23;56.25;;;24.63;;
70201;SDS011;57724;52.164;5.408;2022-08-19T07:34:54;58.95;;;24.83;;
70201;SDS011;57724;52.164;5.408;2022-08-19T07:37:22;55.70;;;24.80;;
70201;SDS011;57724;52.164;5.408;2022-08-19T07:39:58;53.50;;;24.33;;
70201;SDS011;57724;52.164;5.408;2022-08-19T07:42:28;55.92;;;25.75;;
70201;SDS011;57724;52.164;5.408;2022-08-19T07:44:56;60.45;;;26.25;;
70201;SDS011;57724;52.164;5.408;2022-08-19T07:47:24;55.33;;;24.23;;
70201;SDS011;57724;52.164;5.408;2022-08-19T07:50:11;54.72;;;25.73;;
70201;SDS011;57724;52.164;5.408;2022-08-19T07:52:38;56.30;;;24.92;;
70201;SDS011;57724;52.164;5.408;2022-08-19T07:55:07;52.00;;;24.27;;
70201;SDS011;57724;52.164;5.408;2022-08-19T07:57:54;51.55;;;23.67;;
70201;SDS011;57724;52.164;5.408;2022-08-19T08:00:22;49.15;;;23.73;;
70201;SDS011;57724;52.164;5.408;2022-08-19T08:02:50;51.00;;;23.33;;
70201;SDS011;57724;52.164;5.408;2022-08-19T08:05:21;47.35;;;21.88;;
70201;SDS011;57724;52.164;5.408;2022-08-19T08:08:09;46.83;;;22.83;;
70201;SDS011;57724;52.164;5.408;2022-08-19T08:11:14;48.83;;;22.77;;
70201;SDS011;57724;52.164;5.408;2022-08-19T08:13:46;48.03;;;22.48;;
70201;SDS011;57724;52.164;5.408;2022-08-19T08:16:26;44.03;;;22.27;;
70201;SDS011;57724;52.164;5.408;2022-08-19T08:18:57;41.97;;;20.92;;
70201;SDS011;57724;52.164;5.408;2022-08-19T08:21:26;42.92;;;22.08;;
70201;SDS011;57724;52.164;5.408;2022-08-19T08:23:53;47.25;;;22.73;;
70201;SDS011;57724;52.164;5.408;2022-08-19T08:26:22;45.92;;;22.75;;
70201;SDS011;57724;52.164;5.408;2022-08-19T08:28:49;43.20;;;22.17;;
70201;SDS011;57724;52.164;5.408;2022-08-19T08:31:16;45.85;;;22.10;;
70201;SDS011;57724;52.164;5.408;2022-08-19T08:33:45;45.30;;;21.58;;
70201;SDS011;57724;52.164;5.408;2022-08-19T08:36:13;43.53;;;21.00;;
70201;SDS011;57724;52.164;5.408;2022-08-19T08:38:41;43.72;;;20.75;;
70201;SDS011;57724;52.164;5.408;2022-08-19T08:44:56;37.38;;;18.73;;
70201;SDS011;57724;52.164;5.408;2022-08-19T08:47:27;35.95;;;18.60;;
70201;SDS011;57724;52.164;5.408;2022-08-19T08:50:05;38.10;;;18.45;;
70201;SDS011;57724;52.164;5.408;2022-08-19T08:55:16;33.20;;;17.65;;
70201;SDS011;57724;52.164;5.408;2022-08-19T09:00:20;38.30;;;18.15;;
70201;SDS011;57724;52.164;5.408;2022-08-19T09:02:52;35.50;;;18.38;;
70201;SDS011;57724;52.164;5.408;2022-08-19T09:05:20;33.47;;;16.90;;
70201;SDS011;57724;52.164;5.408;2022-08-19T09:08:02;36.97;;;18.05;;
70201;SDS011;57724;52.164;5.408;2022-08-19T09:10:39;33.33;;;17.08;;
70201;SDS011;57724;52.164;5.408;2022-08-19T09:16:09;32.83;;;16.45;;
70201;SDS011;57724;52.164;5.408;2022-08-19T09:18:41;30.83;;;15.85;;
70201;SDS011;57724;52.164;5.408;2022-08-19T09:21:10;30.65;;;16.83;;
70201;SDS011;57724;52.164;5.408;2022-08-19T09:23:37;33.78;;;16.13;;
70201;SDS011;57724;52.164;5.408;2022-08-19T09:26:08;29.08;;;14.82;;
70201;SDS011;57724;52.164;5.408;2022-08-19T09:28:42;30.85;;;16.27;;
70201;SDS011;57724;52.164;5.408;2022-08-19T09:31:15;31.50;;;15.63;;
70201;SDS011;57724;52.164;5.408;2022-08-19T09:33:43;26.05;;;13.88;;
70201;SDS011;57724;52.164;5.408;2022-08-19T09:36:12;27.45;;;14.73;;
70201;SDS011;57724;52.164;5.408;2022-08-19T09:39:00;25.45;;;14.40;;
70201;SDS011;57724;52.164;5.408;2022-08-19T09:41:27;25.80;;;14.35;;
70201;SDS011;57724;52.164;5.408;2022-08-19T09:43:55;26.48;;;14.32;;
70201;SDS011;57724;52.164;5.408;2022-08-19T09:46:25;26.77;;;13.45;;
70201;SDS011;57724;52.164;5.408;2022-08-19T09:48:56;27.30;;;14.10;;
70201;SDS011;57724;52.164;5.408;2022-08-19T09:51:32;22.60;;;12.82;;
70201;SDS011;57724;52.164;5.408;2022-08-19T09:54:01;25.92;;;13.85;;
70201;SDS011;57724;52.164;5.408;2022-08-19T09:56:30;24.35;;;14.45;;
70201;SDS011;57724;52.164;5.408;2022-08-19T09:59:00;25.23;;;15.20;;
70201;SDS011;57724;52.164;5.408;2022-08-19T10:01:29;22.60;;;13.45;;
70201;SDS011;57724;52.164;5.408;2022-08-19T10:03:58;22.17;;;12.73;;
70201;SDS011;57724;52.164;5.408;2022-08-19T10:06:27;20.63;;;12.63;;
70201;SDS011;57724;52.164;5.408;2022-08-19T10:09:12;21.70;;;12.27;;
70201;SDS011;57724;52.164;5.408;2022-08-19T10:11:41;21.30;;;12.07;;
70201;SDS011;57724;52.164;5.408;2022-08-19T10:14:20;20.83;;;12.02;;
70201;SDS011;57724;52.164;5.408;2022-08-19T10:16:49;21.73;;;12.45;;
70201;SDS011;57724;52.164;5.408;2022-08-19T10:19:18;20.58;;;11.68;;
70201;SDS011;57724;52.164;5.408;2022-08-19T10:21:51;19.92;;;11.52;;
70201;SDS011;57724;52.164;5.408;2022-08-19T10:24:19;21.10;;;11.95;;
70201;SDS011;57724;52.164;5.408;2022-08-19T10:26:46;21.08;;;11.95;;
70201;SDS011;57724;52.164;5.408;2022-08-19T10:29:22;20.70;;;11.93;;
70201;SDS011;57724;52.164;5.408;2022-08-19T10:31:58;25.80;;;13.10;;
70201;SDS011;57724;52.164;5.408;2022-08-19T10:34:28;21.30;;;12.75;;
70201;SDS011;57724;52.164;5.408;2022-08-19T10:36:56;23.85;;;13.70;;
70201;SDS011;57724;52.164;5.408;2022-08-19T10:39:27;18.95;;;12.50;;
70201;SDS011;57724;52.164;5.408;2022-08-19T10:41:56;20.98;;;12.68;;
70201;SDS011;57724;52.164;5.408;2022-08-19T10:44:24;23.88;;;13.70;;
70201;SDS011;57724;52.164;5.408;2022-08-19T10:46:58;20.05;;;12.75;;
70201;SDS011;57724;52.164;5.408;2022-08-19T10:49:25;20.35;;;12.73;;
70201;SDS011;57724;52.164;5.408;2022-08-19T10:51:53;26.15;;;13.95;;
70201;SDS011;57724;52.164;5.408;2022-08-19T10:54:45;21.25;;;13.23;;
70201;SDS011;57724;52.164;5.408;2022-08-19T10:57:34;22.40;;;13.88;;
70201;SDS011;57724;52.164;5.408;2022-08-19T11:00:21;21.67;;;14.45;;
70201;SDS011;57724;52.164;5.408;2022-08-19T11:02:49;23.10;;;14.18;;
70201;SDS011;57724;52.164;5.408;2022-08-19T11:05:17;20.77;;;13.65;;
70201;SDS011;57724;52.164;5.408;2022-08-19T11:07:44;19.33;;;13.18;;
70201;SDS011;57724;52.164;5.408;2022-08-19T11:10:12;21.60;;;13.50;;
70201;SDS011;57724;52.164;5.408;2022-08-19T11:12:46;25.80;;;14.90;;
70201;SDS011;57724;52.164;5.408;2022-08-19T11:15:14;22.65;;;15.30;;
70201;SDS011;57724;52.164;5.408;2022-08-19T11:17:41;22.95;;;15.43;;
70201;SDS011;57724;52.164;5.408;2022-08-19T11:20:10;23.50;;;15.95;;
70201;SDS011;57724;52.164;5.408;2022-08-19T11:22:39;24.50;;;15.55;;
70201;SDS011;57724;52.164;5.408;2022-08-19T11:25:08;27.88;;;16.33;;
70201;SDS011;57724;52.164;5.408;2022-08-19T11:27:37;23.63;;;14.95;;
70201;SDS011;57724;52.164;5.408;2022-08-19T11:30:09;25.63;;;15.70;;
70201;SDS011;57724;52.164;5.408;2022-08-19T11:32:39;26.10;;;15.63;;
70201;SDS011;57724;52.164;5.408;2022-08-19T11:35:13;23.33;;;15.20;;
70201;SDS011;57724;52.164;5.408;2022-08-19T11:37:40;23.45;;;14.32;;
70201;SDS011;57724;52.164;5.408;2022-08-19T11:40:07;21.48;;;14.32;;
70201;SDS011;57724;52.164;5.408;2022-08-19T11:42:35;21.55;;;14.38;;
70201;SDS011;57724;52.164;5.408;2022-08-19T11:45:26;21.80;;;15.02;;
70201;SDS011;57724;52.164;5.408;2022-08-19T11:47:54;23.92;;;14.38;;
70201;SDS011;57724;52.164;5.408;2022-08-19T11:50:21;22.55;;;14.55;;
70201;SDS011;57724;52.164;5.408;2022-08-19T11:52:53;21.25;;;13.57;;
70201;SDS011;57724;52.164;5.408;2022-08-19T11:55:20;25.45;;;15.30;;
70201;SDS011;57724;52.164;5.408;2022-08-19T11:57:47;22.60;;;14.48;;
70201;SDS011;57724;52.164;5.408;2022-08-19T12:00:15;26.50;;;16.48;;
70201;SDS011;57724;52.164;5.408;2022-08-19T12:02:42;26.73;;;15.65;;
70201;SDS011;57724;52.164;5.408;2022-08-19T12:05:08;20.75;;;13.70;;
70201;SDS011;57724;52.164;5.408;2022-08-19T12:07:38;27.70;;;16.75;;
70201;SDS011;57724;52.164;5.408;2022-08-19T12:10:07;26.15;;;17.20;;
70201;SDS011;57724;52.164;5.408;2022-08-19T12:12:35;28.10;;;16.67;;
70201;SDS011;57724;52.164;5.408;2022-08-19T12:15:06;26.77;;;16.38;;
70201;SDS011;57724;52.164;5.408;2022-08-19T12:17:33;27.00;;;15.43;;
70201;SDS011;57724;52.164;5.408;2022-08-19T12:20:00;25.52;;;15.85;;
70201;SDS011;57724;52.164;5.408;2022-08-19T12:22:27;28.40;;;15.48;;
70201;SDS011;57724;52.164;5.408;2022-08-19T12:24:54;29.33;;;16.65;;
70201;SDS011;57724;52.164;5.408;2022-08-19T12:27:21;30.00;;;17.38;;
70201;SDS011;57724;52.164;5.408;2022-08-19T12:29:59;31.05;;;16.75;;
70201;SDS011;57724;52.164;5.408;2022-08-19T12:32:27;26.65;;;16.90;;
70201;SDS011;57724;52.164;5.408;2022-08-19T12:34:54;25.00;;;16.13;;
70201;SDS011;57724;52.164;5.408;2022-08-19T12:37:21;25.80;;;16.42;;
70201;SDS011;57724;52.164;5.408;2022-08-19T12:39:48;23.65;;;13.40;;
70201;SDS011;57724;52.164;5.408;2022-08-19T12:42:16;21.45;;;12.00;;
70201;SDS011;57724;52.164;5.408;2022-08-19T12:44:44;19.08;;;11.38;;
70201;SDS011;57724;52.164;5.408;2022-08-19T12:47:11;17.00;;;10.00;;
70201;SDS011;57724;52.164;5.408;2022-08-19T12:49:41;17.40;;;10.38;;
70201;SDS011;57724;52.164;5.408;2022-08-19T12:52:21;17.50;;;10.70;;
70201;SDS011;57724;52.164;5.408;2022-08-19T12:54:50;18.52;;;11.73;;
70201;SDS011;57724;52.164;5.408;2022-08-19T12:57:20;20.13;;;12.05;;
70201;SDS011;57724;52.164;5.408;2022-08-19T12:59:56;19.08;;;11.30;;
70201;SDS011;57724;52.164;5.408;2022-08-19T13:02:23;16.70;;;9.90;;
70201;SDS011;57724;52.164;5.408;2022-08-19T13:04:50;15.13;;;9.35;;
70201;SDS011;57724;52.164;5.408;2022-08-19T13:07:17;13.35;;;8.43;;
70201;SDS011;57724;52.164;5.408;2022-08-19T13:09:44;13.93;;;8.90;;
70201;SDS011;57724;52.164;5.408;2022-08-19T13:12:10;15.20;;;8.95;;
70201;SDS011;57724;52.164;5.408;2022-08-19T13:14:39;14.68;;;9.40;;
70201;SDS011;57724;52.164;5.408;2022-08-19T13:17:07;12.55;;;8.85;;
70201;SDS011;57724;52.164;5.408;2022-08-19T13:19:36;17.50;;;9.45;;
70201;SDS011;57724;52.164;5.408;2022-08-19T13:22:06;16.67;;;10.35;;
70201;SDS011;57724;52.164;5.408;2022-08-19T13:24:40;16.20;;;9.70;;
70201;SDS011;57724;52.164;5.408;2022-08-19T13:27:12;16.98;;;11.25;;
70201;SDS011;57724;52.164;5.408;2022-08-19T13:29:40;20.08;;;12.52;;
70201;SDS011;57724;52.164;5.408;2022-08-19T13:32:26;19.10;;;12.70;;
70201;SDS011;57724;52.164;5.408;2022-08-19T13:35:14;20.67;;;13.48;;
70201;SDS011;57724;52.164;5.408;2022-08-19T13:37:42;20.00;;;12.93;;
70201;SDS011;57724;52.164;5.408;2022-08-19T13:40:11;18.75;;;12.70;;
70201;SDS011;57724;52.164;5.408;2022-08-19T13:42:45;19.08;;;12.35;;
70201;SDS011;57724;52.164;5.408;2022-08-19T13:47:46;22.02;;;14.00;;
70201;SDS011;57724;52.164;5.408;2022-08-19T13:50:16;17.77;;;12.40;;
70201;SDS011;57724;52.164;5.408;2022-08-19T13:52:45;23.45;;;14.10;;
70201;SDS011;57724;52.164;5.408;2022-08-19T13:55:14;20.50;;;13.00;;
70201;SDS011;57724;52.164;5.408;2022-08-19T13:57:53;21.08;;;12.98;;
70201;SDS011;57724;52.164;5.408;2022-08-19T14:00:22;21.00;;;12.93;;
70201;SDS011;57724;52.164;5.408;2022-08-19T14:02:53;21.10;;;12.15;;
70201;SDS011;57724;52.164;5.408;2022-08-19T14:05:22;18.60;;;11.60;;
70201;SDS011;57724;52.164;5.408;2022-08-19T14:07:50;17.98;;;11.57;;
70201;SDS011;57724;52.164;5.408;2022-08-19T14:10:17;17.77;;;10.85;;
70201;SDS011;57724;52.164;5.408;2022-08-19T14:12:45;17.98;;;10.80;;
70201;SDS011;57724;52.164;5.408;2022-08-19T14:15:13;16.48;;;10.18;;
70201;SDS011;57724;52.164;5.408;2022-08-19T14:17:42;16.67;;;10.85;;
70201;SDS011;57724;52.164;5.408;2022-08-19T14:20:10;17.95;;;10.68;;
70201;SDS011;57724;52.164;5.408;2022-08-19T14:22:44;16.73;;;10.52;;
70201;SDS011;57724;52.164;5.408;2022-08-19T14:25:17;19.05;;;11.23;;
70201;SDS011;57724;52.164;5.408;2022-08-19T14:27:46;18.42;;;10.75;;
70201;SDS011;57724;52.164;5.408;2022-08-19T14:30:15;18.55;;;11.90;;
70201;SDS011;57724;52.164;5.408;2022-08-19T14:32:47;20.42;;;12.45;;
70201;SDS011;57724;52.164;5.408;2022-08-19T14:35:14;17.55;;;11.20;;
70201;SDS011;57724;52.164;5.408;2022-08-19T14:37:42;19.25;;;10.82;;
70201;SDS011;57724;52.164;5.408;2022-08-19T14:40:16;15.00;;;9.07;;
70201;SDS011;57724;52.164;5.408;2022-08-19T14:42:46;16.80;;;9.55;;
70201;SDS011;57724;52.164;5.408;2022-08-19T14:45:14;14.68;;;8.77;;
70201;SDS011;57724;52.164;5.408;2022-08-19T14:47:41;12.75;;;7.65;;
70201;SDS011;57724;52.164;5.408;2022-08-19T14:50:11;13.18;;;8.00;;
70201;SDS011;57724;52.164;5.408;2022-08-19T14:52:46;14.60;;;7.93;;
70201;SDS011;57724;52.164;5.408;2022-08-19T14:55:15;14.15;;;8.18;;
70201;SDS011;57724;52.164;5.408;2022-08-19T14:57:43;13.23;;;7.68;;
70201;SDS011;57724;52.164;5.408;2022-08-19T15:00:11;12.98;;;7.72;;
70201;SDS011;57724;52.164;5.408;2022-08-19T15:02:40;12.68;;;6.63;;
70201;SDS011;57724;52.164;5.408;2022-08-19T15:05:08;12.52;;;7.40;;
70201;SDS011;57724;52.164;5.408;2022-08-19T15:07:35;16.38;;;7.53;;
70201;SDS011;57724;52.164;5.408;2022-08-19T15:10:02;11.95;;;6.88;;
70201;SDS011;57724;52.164;5.408;2022-08-19T15:12:30;13.10;;;6.95;;
70201;SDS011;57724;52.164;5.408;2022-08-19T15:14:57;11.25;;;6.22;;
70201;SDS011;57724;52.164;5.408;2022-08-19T15:17:24;11.25;;;6.28;;